Flight Track Log - Related Links

Times and Time Zones

All times are in EDT time to prevent confusion due to time zone crossing. See the SWA2166 flight status page for this flight to view local times or setup timezone preferences in your user account.

Time Position Orientation Groundspeed Altitude Reporting Facility
EDT Latitude Longitude Course Direction KTS MPH feet Rate Location/Type
Mon 05:02:24 PM 28.4333 -81.3167 196° South 148 170 800  Level Orlando TRACON
Mon 05:03:19 PM 28.3833 -81.3333 196° South 216 249 3,000 2,765 Climbing Orlando TRACON
Mon 05:04:19 PM 28.3500 -81.3833 233° Southwest 254 292 6,100 3,302 Climbing Orlando TRACON
Mon 05:06:28 PM 28.3561 -81.5881 272° West 312 359 13,400 3,556 Climbing Jacksonville Center
Mon 05:07:28 PM 28.3656 -81.6989 276° West 339 390 17,300 3,550 Climbing Jacksonville Center
Mon 05:08:28 PM 28.3708 -81.8075 273° West 369 425 20,500 3,250 Climbing Jacksonville Center
Mon 05:09:28 PM 28.3800 -81.9253 275° West 381 438 23,800 2,750 Climbing Jacksonville Center
Mon 05:10:28 PM 28.3892 -82.0503 275° West 395 455 26,000 1,750 Climbing Jacksonville Center
Mon 05:11:28 PM 28.4025 -82.1775 277° West 402 463 27,300 1,950 Climbing Jacksonville Center
Mon 05:12:28 PM 28.4303 -82.2978 285° West 407 468 29,900 2,500 Climbing Jacksonville Center
Mon 05:13:28 PM 28.5225 -82.3753 324° Northwest 389 448 32,300 2,350 Climbing Jacksonville Center
Mon 05:14:28 PM 28.6144 -82.4503 324° Northwest 389 448 34,600 2,300 Climbing Jacksonville Center
Mon 05:15:28 PM 28.7169 -82.5328 325° Northwest 407 468 36,900 1,700 Climbing Jacksonville Center
Mon 05:16:28 PM 28.8069 -82.6083 324° Northwest 407 468 38,000 600 Climbing Jacksonville Center
Mon 05:17:28 PM 28.8989 -82.6814 325° Northwest 407 468 38,100 850 Climbing Jacksonville Center
Mon 05:18:28 PM 28.9908 -82.7572 324° Northwest 407 468 39,700 950 Climbing Jacksonville Center
Mon 05:19:28 PM 29.0850 -82.8331 325° Northwest 407 468 40,000 150 Climbing Jacksonville Center
Mon 05:20:28 PM 29.1581 -82.8950 323° Northwest 407 468 40,000  Level Jacksonville Center
Mon 05:21:28 PM 29.2561 -82.9783 323° Northwest 407 468 40,000  Level Jacksonville Center
Mon 05:22:28 PM 29.3458 -83.0522 324° Northwest 407 468 40,000  Level Jacksonville Center
Mon 05:23:28 PM 29.4375 -83.1286 324° Northwest 407 468 40,000  Level Jacksonville Center
Mon 05:24:28 PM 29.5292 -83.2053 324° Northwest 402 463 40,000  Level Jacksonville Center
Mon 05:25:28 PM 29.6167 -83.2819 323° Northwest 407 468 40,000  Level Jacksonville Center
Mon 05:26:27 PM 29.7083 -83.3564 325° Northwest 407 468 40,000  Level Jacksonville Center
Mon 05:27:28 PM 29.7997 -83.4336 324° Northwest 407 468 40,000  Level Jacksonville Center
Mon 05:28:28 PM 29.8914 -83.5083 325° Northwest 407 468 40,000  Level Jacksonville Center
Mon 05:29:27 PM 29.9828 -83.5833 325° Northwest 407 468 40,000  Level Jacksonville Center
Mon 05:30:28 PM 30.0722 -83.6583 324° Northwest 407 468 40,000  Level Jacksonville Center
Mon 05:31:28 PM 30.1636 -83.7358 324° Northwest 407 468 40,000  Level Jacksonville Center
Mon 05:32:28 PM 30.2547 -83.8111 324° Northwest 407 468 40,000  Level Jacksonville Center
Mon 05:33:28 PM 30.3442 -83.8892 323° Northwest 407 468 40,000  Level Jacksonville Center
Mon 05:34:28 PM 30.4353 -83.9672 324° Northwest 407 468 40,000  Level Jacksonville Center
Mon 05:35:28 PM 30.5244 -84.0453 323° Northwest 407 468 40,000  Level Jacksonville Center
Mon 05:36:28 PM 30.6217 -84.1261 324° Northwest 402 463 40,000  Level Jacksonville Center
Mon 05:37:28 PM 30.7108 -84.2047 323° Northwest 402 463 40,000 -50 Level Jacksonville Center
Mon 05:38:28 PM 30.8017 -84.2833 323° Northwest 402 463 39,900 -550 Descending Jacksonville Center
Mon 05:39:28 PM 30.8947 -84.3619 324° Northwest 408 470 38,900 -958 Descending Jacksonville Center
Mon 05:40:27 PM 30.9900 -84.4436 324° Northwest 413 475 38,000 -950 Descending Jacksonville Center
Mon 05:41:28 PM 31.0828 -84.5250 323° Northwest 413 475 37,000 -942 Descending Jacksonville Center
Mon 05:42:28 PM 31.1758 -84.6069 323° Northwest 413 475 36,100 -900 Descending Jacksonville Center
Mon 05:43:28 PM 31.2664 -84.6886 322° Northwest 418 481 35,200 -741 Descending Jacksonville Center
Mon 05:45:18 PM 31.4394 -84.8372 324° Northwest 406 467 34,000 -424 Descending Atlanta Center
Mon 05:46:18 PM 31.5328 -84.9208 323° Northwest 411 473 34,000  Level Atlanta Center
Mon 05:47:18 PM 31.6281 -85.0022 324° Northwest 417 480 34,000 -300 Level Atlanta Center
Mon 05:48:18 PM 31.7192 -85.0814 324° Northwest 412 474 33,400 -750 Descending Atlanta Center
Mon 05:49:18 PM 31.8000 -85.1531 323° Northwest 412 474 32,500 -1,400 Descending Atlanta Center
Mon 05:50:18 PM 31.8953 -85.2375 323° Northwest 417 480 30,600 -1,500 Descending Atlanta Center
Mon 05:51:18 PM 31.9906 -85.3194 324° Northwest 417 480 29,500 -1,050 Descending Atlanta Center
Mon 05:52:18 PM 32.0814 -85.4017 323° Northwest 417 480 28,500 -1,100 Descending Atlanta Center
Mon 05:53:18 PM 32.1828 -85.4917 323° Northwest 417 480 27,300 -1,100 Descending Atlanta Center
Mon 05:54:18 PM 32.2694 -85.5667 324° Northwest 412 474 26,300 -1,200 Descending Atlanta Center
Mon 05:55:18 PM 32.3581 -85.6444 323° Northwest 407 468 24,900 -1,400 Descending Atlanta Center
Mon 05:56:18 PM 32.4447 -85.7247 322° Northwest 402 463 23,500 -950 Descending Atlanta Center
Mon 05:57:18 PM 32.5253 -85.7953 324° Northwest 385 443 23,000 -250 Descending Atlanta Center
Mon 05:58:18 PM 32.6075 -85.8733 321° Northwest 379 436 23,000  Level Atlanta Center
Mon 05:59:18 PM 32.6919 -85.9467 324° Northwest 379 436 23,000 -250 Level Atlanta Center
Mon 06:00:18 PM 32.7722 -86.0225 322° Northwest 379 436 22,500 -1,450 Descending Atlanta Center
Mon 06:01:18 PM 32.8544 -86.0986 322° Northwest 379 436 20,100 -2,550 Descending Atlanta Center
Mon 06:02:18 PM 32.9325 -86.1697 323° Northwest 368 423 17,400 -3,150 Descending Atlanta Center
Mon 06:03:18 PM 33.0128 -86.2411 323° Northwest 362 417 13,800 -3,704 Descending Atlanta Center
Mon 06:03:39 PM 33.0353 -86.2714 312° West 369 425 12,400 -2,800 Descending Atlanta Center
Mon 06:04:18 PM 33.0969 -86.3175 328° Northwest 362 417 11,000 -1,167 Descending Atlanta Center
Mon 06:04:51 PM 33.1336 -86.3633 314° West 326 375 11,000  Level Atlanta Center
Mon 06:05:18 PM 33.1667 -86.3839 333° Northwest 347 399 11,000  Level Atlanta Center
Mon 06:05:58 PM 33.2117 -86.4297 320° Northwest 296 341 11,000  Level Atlanta Center
Mon 06:06:18 PM 33.2303 -86.4403 335° Northwest 316 364 11,000 -984 Level Atlanta Center
Mon 06:06:59 PM 33.2711 -86.4811 320° Northwest 261 300 10,000 -1,800 Descending Atlanta Center
Mon 06:07:18 PM 33.2939 -86.4917 339° North 288 331 9,200 -1,900 Descending Atlanta Center
Mon 06:07:59 PM 33.3456 -86.5206 335° Northwest 295 339 8,100 -1,400 Descending Atlanta Center
Mon 06:08:18 PM 33.3622 -86.5261 344° North 283 326 7,800 -1,672 Descending Atlanta Center
Mon 06:09:00 PM 33.4178 -86.5600 333° Northwest 291 335 6,400 -1,600 Descending Atlanta Center
Mon 06:09:18 PM 33.4364 -86.5656 346° North 283 326 6,200 -1,475 Descending Atlanta Center
Mon 06:10:01 PM 33.4942 -86.6044 331° Northwest 289 333 4,900 -1,400 Descending Atlanta Center
Mon 06:10:18 PM 33.5086 -86.6050 358° North 283 326 4,800 -600 Descending Atlanta Center
Mon 06:11:01 PM 33.5500 -86.6336 330° Northwest 193 222 4,300 -700 Descending Atlanta Center
Mon 06:11:18 PM 33.5644 -86.6364 351° North 256 295 4,100 -1,377 Descending Atlanta Center
Mon 06:12:02 PM 33.5931 -86.6647 320° Northwest 158 182 2,900 -1,400 Descending Atlanta Center
Mon 06:12:18 PM 33.6033 -86.6700 337° Northwest 206 237 2,700 -1,500 Descending Atlanta Center
Mon 06:13:02 PM 33.5919 -86.7097 251° West 143 165 1,400 -787 Descending Atlanta Center
Mon 06:13:19 PM 33.6294 -86.7133 355° North 197 227 1,900 1,765 Climbing Atlanta Center
Mon 06:15:00 PM 33.5639 -86.7523 309° West  Level Estimated
Mon 06:22:00 PM 33.5639 -86.7523 309° West  Level Estimated

Login

Don't have an account? Register now (free) for customized features, flight alerts, and more!